Time;durP1;ratioP1;P1;durP2;ratioP2;P2;SDS_P1;SDS_P2;PMS_P1;PMS_P2;Temp;Humidity;BMP_temperature;BMP_pressure;BME280_temperature;BME280_humidity;BME280_pressure;Samples;Min_cycle;Max_cycle;Signal;HPM_P1;HPM_P2
2022/06/30 00:01:46;;;;;;;11.65;1.50;;;16.80;99.90;;;;;;4876080;29;20028;-75
2022/06/30 00:04:12;;;;;;;11.48;1.77;;;16.80;99.90;;;;;;4874861;29;20057;-75
2022/06/30 00:06:38;;;;;;;10.48;1.50;;;16.80;99.90;;;;;;4876107;29;20332;-75
2022/06/30 00:09:04;;;;;;;9.13;1.38;;;16.80;99.90;;;;;;4876065;29;20273;-75
2022/06/30 00:11:30;;;;;;;7.78;1.38;;;16.80;99.90;;;;;;4875994;29;20081;-75
2022/06/30 00:13:57;;;;;;;8.70;1.50;;;16.80;99.90;;;;;;4876007;29;20060;-75
2022/06/30 00:16:22;;;;;;;12.60;1.63;;;16.80;99.90;;;;;;4875811;29;20025;-75
2022/06/30 00:18:48;;;;;;;9.75;1.60;;;16.80;99.90;;;;;;4875998;29;20034;-75
2022/06/30 00:21:14;;;;;;;7.50;1.55;;;16.80;99.90;;;;;;4876157;29;20025;-75
2022/06/30 00:23:39;;;;;;;12.48;1.60;;;16.80;99.90;;;;;;4875792;29;20490;-75
2022/06/30 00:26:06;;;;;;;10.60;1.65;;;16.80;99.90;;;;;;4876007;29;20040;-75
2022/06/30 00:28:32;;;;;;;12.23;1.80;;;16.80;99.90;;;;;;4875779;29;20080;-75
2022/06/30 00:30:58;;;;;;;12.30;1.60;;;16.80;99.90;;;;;;4875717;29;20037;-75
2022/06/30 00:33:24;;;;;;;7.07;1.45;;;16.80;99.90;;;;;;4875692;29;20105;-75
2022/06/30 00:35:50;;;;;;;6.57;1.30;;;16.80;99.90;;;;;;4876039;29;20026;-75
2022/06/30 00:38:15;;;;;;;5.88;1.05;;;16.80;99.90;;;;;;4875853;29;20029;-75
2022/06/30 00:40:43;;;;;;;10.18;1.25;;;16.80;99.90;;;;;;4875644;29;20025;-75
2022/06/30 00:43:09;;;;;;;8.98;1.60;;;16.70;99.90;;;;;;4875938;29;20037;-75
2022/06/30 00:45:46;;;;;;;11.27;1.17;;;16.70;99.90;;;;;;4875495;29;20056;-75
2022/06/30 00:48:13;;;;;;;9.38;1.85;;;16.70;99.90;;;;;;4875659;29;20445;-75
2022/06/30 00:50:39;;;;;;;9.18;1.30;;;16.60;99.90;;;;;;4878584;29;20055;-75
2022/06/30 00:53:06;;;;;;;7.88;1.40;;;16.70;99.90;;;;;;4879298;29;20148;-75
2022/06/30 00:55:34;;;;;;;6.72;1.30;;;16.70;99.90;;;;;;4879331;29;20058;-75
2022/06/30 00:58:03;;;;;;;7.65;1.08;;;16.70;99.90;;;;;;4879318;29;20024;-75
2022/06/30 01:00:31;;;;;;;9.93;1.38;;;16.70;99.90;;;;;;4879446;29;20520;-75
2022/06/30 01:02:59;;;;;;;8.13;1.42;;;16.70;99.90;;;;;;4878773;29;20037;-75
2022/06/30 01:05:26;;;;;;;6.90;1.55;;;16.80;99.90;;;;;;4879170;29;20071;-75
2022/06/30 01:07:55;;;;;;;6.45;1.52;;;16.80;99.90;;;;;;4878938;29;20080;-75
2022/06/30 01:13:14;;;;;;;7.22;1.10;;;16.80;99.90;;;;;;4857804;29;20038;-75
2022/06/30 01:15:39;;;;;;;5.95;1.05;;;16.80;99.90;;;;;;4879112;29;20120;-75
2022/06/30 01:18:05;;;;;;;10.77;1.20;;;16.80;99.90;;;;;;4878988;29;20493;-75
2022/06/30 01:20:33;;;;;;;10.68;1.20;;;16.70;99.90;;;;;;4879084;29;20025;-75
2022/06/30 01:23:00;;;;;;;8.98;1.50;;;16.80;99.90;;;;;;4878828;29;20025;-75
2022/06/30 01:25:26;;;;;;;7.95;1.80;;;16.70;99.90;;;;;;4878562;29;20041;-75
2022/06/30 01:27:53;;;;;;;9.07;1.27;;;16.70;99.90;;;;;;4867181;29;20461;-75
2022/06/30 01:30:19;;;;;;;5.18;1.10;;;16.80;99.90;;;;;;4876054;29;20099;-75
2022/06/30 01:32:45;;;;;;;5.00;1.13;;;16.80;99.90;;;;;;4878724;29;20393;-75
2022/06/30 01:35:11;;;;;;;5.95;1.00;;;16.80;99.90;;;;;;4878668;29;20033;-75
2022/06/30 01:37:58;;;;;;;7.88;1.50;;;16.80;99.90;;;;;;4878782;29;20031;-75
2022/06/30 01:40:26;;;;;;;9.00;1.50;;;16.80;99.90;;;;;;4878456;29;20111;-75
2022/06/30 01:42:52;;;;;;;8.95;1.40;;;16.80;99.90;;;;;;4878487;29;20021;-75
2022/06/30 01:45:19;;;;;;;7.10;1.25;;;16.90;99.90;;;;;;4878299;29;20045;-75
2022/06/30 01:47:44;;;;;;;8.35;1.35;;;16.90;99.90;;;;;;4878554;29;20077;-75
2022/06/30 01:50:17;;;;;;;9.13;1.95;;;16.90;99.90;;;;;;4878766;29;20029;-75
2022/06/30 01:52:43;;;;;;;5.00;1.00;;;16.90;99.90;;;;;;4878382;29;20235;-75
2022/06/30 01:55:09;;;;;;;9.65;1.13;;;16.80;99.90;;;;;;4878483;29;20402;-75
2022/06/30 01:57:36;;;;;;;5.75;1.42;;;16.80;99.90;;;;;;4878587;29;20193;-75
2022/06/30 02:00:11;;;;;;;6.18;1.13;;;16.80;99.90;;;;;;4878005;29;20097;-75
2022/06/30 02:02:37;;;;;;;4.40;0.93;;;16.80;99.90;;;;;;4877444;29;20045;-75
2022/06/30 02:05:03;;;;;;;5.55;0.95;;;16.80;99.90;;;;;;4877914;29;20052;-75
2022/06/30 02:07:29;;;;;;;9.07;1.35;;;16.80;99.90;;;;;;4878127;29;20025;-75
2022/06/30 02:09:55;;;;;;;7.78;1.40;;;16.90;99.90;;;;;;4878183;29;20041;-75
2022/06/30 02:15:08;;;;;;;5.32;1.00;;;16.80;99.90;;;;;;4878239;29;20091;-75
2022/06/30 02:17:34;;;;;;;5.55;1.23;;;16.80;99.90;;;;;;4877902;29;20021;-75
2022/06/30 02:20:00;;;;;;;7.40;0.95;;;16.80;99.90;;;;;;4877548;29;20036;-75
2022/06/30 02:22:26;;;;;;;6.22;0.90;;;16.80;99.90;;;;;;4877883;29;20113;-75
2022/06/30 02:24:52;;;;;;;9.27;0.90;;;16.90;99.90;;;;;;4877727;29;20626;-75
2022/06/30 02:27:21;;;;;;;3.22;0.80;;;16.90;99.90;;;;;;4877886;29;20288;-75
2022/06/30 02:29:47;;;;;;;7.30;1.10;;;16.80;99.90;;;;;;4878128;29;20029;-75
2022/06/30 02:32:12;;;;;;;7.07;1.45;;;16.80;99.90;;;;;;4877572;29;20512;-75
2022/06/30 02:34:38;;;;;;;9.00;1.70;;;16.80;99.90;;;;;;4877610;29;20029;-75
2022/06/30 02:37:04;;;;;;;7.15;1.63;;;16.80;99.90;;;;;;4877368;29;20037;-75
2022/06/30 02:39:29;;;;;;;4.50;1.02;;;16.80;99.90;;;;;;4877591;29;20029;-75
2022/06/30 02:41:55;;;;;;;8.70;1.48;;;16.70;99.90;;;;;;4877500;29;20029;-75
2022/06/30 02:44:21;;;;;;;6.90;0.93;;;16.80;99.90;;;;;;4877485;29;20070;-75
2022/06/30 02:46:50;;;;;;;5.82;1.15;;;16.80;99.90;;;;;;4877288;29;20040;-75
2022/06/30 02:49:17;;;;;;;6.35;1.63;;;16.80;99.90;;;;;;4877277;29;20017;-75
2022/06/30 02:51:43;;;;;;;7.03;1.55;;;16.80;99.90;;;;;;4877248;29;20478;-75
2022/06/30 02:54:08;;;;;;;5.60;1.10;;;16.90;99.90;;;;;;4877330;29;20029;-75
2022/06/30 02:56:34;;;;;;;5.10;0.80;;;17.00;99.90;;;;;;4877120;29;20033;-75
2022/06/30 02:59:00;;;;;;;4.25;1.17;;;16.90;99.90;;;;;;4877096;29;20029;-75
2022/06/30 03:01:25;;;;;;;7.22;1.10;;;17.00;99.90;;;;;;4877065;29;20023;-75
2022/06/30 03:03:51;;;;;;;8.02;1.15;;;16.90;99.90;;;;;;4877362;29;20094;-75
2022/06/30 03:06:17;;;;;;;7.50;1.20;;;16.90;99.90;;;;;;4877086;29;20581;-75
2022/06/30 03:08:42;;;;;;;7.18;1.50;;;16.80;99.90;;;;;;4869003;29;20057;-76
2022/06/30 03:11:08;;;;;;;10.70;1.70;;;16.60;99.90;;;;;;4870852;29;20033;-76
2022/06/30 03:13:34;;;;;;;7.25;1.30;;;16.60;99.90;;;;;;4876566;29;20103;-76
2022/06/30 03:16:01;;;;;;;15.25;1.77;;;16.40;99.90;;;;;;4876695;29;20052;-76
2022/06/30 03:18:27;;;;;;;8.00;1.30;;;16.30;99.90;;;;;;4876603;29;20036;-76
2022/06/30 03:20:53;;;;;;;5.82;1.30;;;16.10;99.90;;;;;;4877175;29;20368;-76
2022/06/30 03:23:19;;;;;;;7.45;1.73;;;16.10;99.90;;;;;;4876814;29;20062;-77
2022/06/30 03:25:44;;;;;;;10.40;1.90;;;16.00;99.90;;;;;;4876752;29;20481;-78
2022/06/30 03:28:10;;;;;;;11.88;1.90;;;16.00;99.90;;;;;;4876827;29;20025;-78
2022/06/30 03:30:36;;;;;;;13.77;2.40;;;16.00;99.90;;;;;;4876399;29;20037;-79
2022/06/30 03:33:01;;;;;;;9.25;2.03;;;16.10;99.90;;;;;;4876555;29;20115;-79
2022/06/30 03:35:27;;;;;;;7.20;1.98;;;16.10;99.90;;;;;;4876701;29;20088;-78
2022/06/30 03:37:52;;;;;;;6.75;1.60;;;16.10;99.90;;;;;;4876712;29;20028;-78
2022/06/30 03:40:18;;;;;;;13.40;1.88;;;16.10;99.90;;;;;;4876550;29;20501;-78
2022/06/30 03:42:44;;;;;;;9.18;1.63;;;16.10;99.90;;;;;;4876582;29;20103;-78
2022/06/30 03:45:09;;;;;;;10.20;1.40;;;16.00;99.90;;;;;;4876644;29;20041;-78
2022/06/30 03:47:35;;;;;;;12.30;1.80;;;16.00;99.90;;;;;;4876184;29;20025;-78
2022/06/30 03:50:00;;;;;;;10.32;1.60;;;16.00;99.90;;;;;;4876285;29;20029;-78
2022/06/30 03:52:27;;;;;;;9.13;1.55;;;15.90;99.90;;;;;;4876193;29;20078;-78
2022/06/30 03:54:52;;;;;;;5.93;1.42;;;16.00;99.90;;;;;;4876300;29;20056;-78
2022/06/30 03:57:18;;;;;;;10.70;1.90;;;16.10;99.90;;;;;;4876325;29;20033;-78
2022/06/30 03:59:44;;;;;;;10.45;1.75;;;16.00;99.90;;;;;;4876752;29;20044;-78
2022/06/30 04:02:10;;;;;;;13.50;1.90;;;16.00;99.90;;;;;;4876146;29;20033;-78
2022/06/30 04:04:35;;;;;;;10.30;2.85;;;16.00;99.90;;;;;;4876341;29;20376;-78
2022/06/30 04:07:01;;;;;;;17.05;2.67;;;16.00;99.90;;;;;;4876128;29;20023;-78
2022/06/30 04:09:27;;;;;;;15.43;2.45;;;15.90;99.90;;;;;;4876124;29;20029;-83
2022/06/30 04:11:52;;;;;;;13.88;2.58;;;15.90;99.90;;;;;;4875310;29;20025;-82
2022/06/30 04:14:18;;;;;;;11.60;2.03;;;15.90;99.90;;;;;;4875640;29;20081;-83
2022/06/30 04:16:43;;;;;;;13.90;1.92;;;15.80;99.90;;;;;;4875720;29;20064;-82
2022/06/30 04:19:09;;;;;;;11.20;1.95;;;15.80;99.90;;;;;;4875656;29;20013;-83
2022/06/30 04:21:35;;;;;;;11.43;1.70;;;15.80;99.90;;;;;;4875728;29;20036;-82
2022/06/30 04:24:00;;;;;;;9.25;1.85;;;15.80;99.90;;;;;;4877055;29;20227;-82
2022/06/30 04:26:26;;;;;;;7.88;1.60;;;15.80;99.90;;;;;;4879868;29;20029;-82
2022/06/30 04:28:52;;;;;;;8.90;1.73;;;15.80;99.90;;;;;;4879146;29;20486;-83
2022/06/30 04:34:02;;;;;;;13.85;1.88;;;15.80;99.90;;;;;;4879732;29;20073;-83
2022/06/30 04:36:27;;;;;;;12.68;2.13;;;15.70;99.90;;;;;;4881749;29;20029;-83
2022/06/30 04:38:53;;;;;;;14.13;1.98;;;15.70;99.90;;;;;;4889932;29;20024;-83
2022/06/30 04:41:24;;;;;;;11.43;1.83;;;15.70;99.90;;;;;;4887858;29;20051;-83
2022/06/30 04:43:51;;;;;;;9.93;2.33;;;15.70;99.90;;;;;;4890433;29;20024;-84
2022/06/30 04:46:17;;;;;;;9.38;1.60;;;15.70;99.90;;;;;;4886966;29;20032;-84
2022/06/30 04:48:43;;;;;;;8.20;1.85;;;15.70;99.90;;;;;;4889226;29;20029;-84
2022/06/30 04:51:08;;;;;;;11.23;1.70;;;15.70;99.90;;;;;;4882695;29;20041;-85
2022/06/30 04:53:34;;;;;;;14.60;2.35;;;15.70;99.90;;;;;;4881817;29;20021;-84
2022/06/30 04:56:00;;;;;;;7.68;1.73;;;15.70;99.90;;;;;;4890935;29;20036;-84
2022/06/30 04:58:26;;;;;;;9.85;1.75;;;15.70;99.90;;;;;;4890725;29;20025;-84
2022/06/30 05:00:51;;;;;;;6.40;1.35;;;15.70;99.90;;;;;;4890740;29;20029;-84
2022/06/30 05:03:17;;;;;;;12.65;2.08;;;15.60;99.90;;;;;;4883804;29;20053;-84
2022/06/30 05:05:43;;;;;;;9.82;1.70;;;15.50;99.90;;;;;;4878864;29;20041;-84
2022/06/30 05:08:09;;;;;;;8.52;2.42;;;15.50;99.90;;;;;;4869694;29;20032;-84
2022/06/30 05:10:34;;;;;;;10.32;2.00;;;15.50;99.90;;;;;;4883083;29;20029;-84
2022/06/30 05:13:00;;;;;;;11.30;1.95;;;15.40;99.90;;;;;;4879954;29;20032;-83
2022/06/30 05:15:26;;;;;;;9.27;1.98;;;15.50;99.90;;;;;;4879425;29;20025;-83
2022/06/30 05:17:52;;;;;;;12.40;2.17;;;15.60;99.90;;;;;;4878962;29;20021;-83
2022/06/30 05:20:17;;;;;;;11.30;2.65;;;15.60;99.90;;;;;;4866850;29;20033;-83
2022/06/30 05:22:43;;;;;;;13.38;2.63;;;15.60;99.90;;;;;;4881382;29;20029;-83
2022/06/30 05:27:53;;;;;;;9.15;1.90;;;15.70;99.90;;;;;;4880378;29;20383;-82
2022/06/30 05:30:19;;;;;;;10.35;1.98;;;15.80;99.90;;;;;;4879020;29;20029;-84
2022/06/30 05:32:46;;;;;;;12.90;1.88;;;15.80;99.90;;;;;;4877270;29;20163;-81
2022/06/30 05:35:12;;;;;;;8.23;2.45;;;15.90;99.90;;;;;;4878788;29;20036;-81
2022/06/30 05:37:38;;;;;;;7.20;1.55;;;15.90;99.90;;;;;;4878557;29;20025;-81
2022/06/30 05:40:05;;;;;;;10.35;1.85;;;15.90;99.90;;;;;;4878560;29;20067;-81
2022/06/30 05:42:30;;;;;;;10.05;1.67;;;16.00;99.90;;;;;;4878591;29;20035;-81
2022/06/30 05:44:56;;;;;;;11.93;2.05;;;16.00;99.90;;;;;;4878350;29;20029;-81
2022/06/30 05:47:22;;;;;;;13.13;2.22;;;16.00;99.90;;;;;;4878161;29;20026;-81
2022/06/30 05:49:47;;;;;;;9.60;2.38;;;16.00;99.90;;;;;;4877141;29;20116;-81
2022/06/30 05:52:13;;;;;;;11.15;2.17;;;15.90;99.90;;;;;;4877055;29;20119;-81
2022/06/30 05:54:38;;;;;;;10.10;2.70;;;15.90;99.90;;;;;;4876863;29;20435;-80
2022/06/30 05:57:05;;;;;;;11.77;2.03;;;15.90;99.90;;;;;;4876857;29;20028;-80
2022/06/30 05:59:32;;;;;;;10.38;2.08;;;16.00;99.90;;;;;;4876865;29;20060;-80
2022/06/30 06:01:59;;;;;;;9.55;1.90;;;16.00;99.90;;;;;;4877398;29;20093;-80
2022/06/30 06:04:24;;;;;;;11.10;1.88;;;16.00;99.90;;;;;;4877628;29;20045;-80
2022/06/30 06:06:50;;;;;;;13.10;2.50;;;16.00;99.90;;;;;;4878053;29;20025;-79
2022/06/30 06:09:16;;;;;;;10.55;1.58;;;16.10;99.90;;;;;;4878256;29;20029;-79
2022/06/30 06:11:42;;;;;;;9.80;1.75;;;16.20;99.90;;;;;;4878132;29;20168;-79
2022/06/30 06:14:08;;;;;;;12.23;2.22;;;16.30;99.90;;;;;;4878249;29;20028;-79
2022/06/30 06:16:34;;;;;;;14.20;2.13;;;16.40;99.90;;;;;;4863444;29;20436;-79
2022/06/30 06:19:00;;;;;;;9.20;1.88;;;16.50;99.90;;;;;;4877845;29;20068;-78
2022/06/30 06:21:27;;;;;;;12.18;2.20;;;16.60;99.90;;;;;;4877885;29;20414;-78
2022/06/30 06:23:53;;;;;;;9.95;1.73;;;16.60;99.90;;;;;;4864894;29;20028;-79
2022/06/30 06:26:19;;;;;;;7.88;1.50;;;16.70;99.90;;;;;;4878072;29;20061;-78
2022/06/30 06:31:31;;;;;;;6.40;1.70;;;16.80;99.90;;;;;;4877925;29;20040;-78
2022/06/30 06:33:57;;;;;;;10.07;2.22;;;16.80;99.90;;;;;;4877717;29;20036;-79
2022/06/30 06:36:23;;;;;;;15.43;2.85;;;16.90;99.90;;;;;;4877885;29;20033;-78
2022/06/30 06:38:48;;;;;;;8.30;2.03;;;16.90;99.90;;;;;;4877605;29;20510;-78
2022/06/30 06:41:15;;;;;;;10.77;2.17;;;16.90;99.90;;;;;;4877603;29;20085;-78
2022/06/30 06:43:41;;;;;;;13.60;2.75;;;16.90;99.90;;;;;;4877367;29;20040;-78
2022/06/30 06:46:06;;;;;;;9.68;2.05;;;17.00;99.90;;;;;;4877305;29;20482;-78
2022/06/30 06:48:32;;;;;;;10.88;2.70;;;17.10;99.90;;;;;;4876996;29;20422;-78
2022/06/30 06:50:58;;;;;;;13.32;2.90;;;17.10;99.90;;;;;;4877434;29;20138;-78
2022/06/30 06:53:24;;;;;;;8.98;1.90;;;17.20;99.90;;;;;;4877397;29;20100;-78
2022/06/30 06:55:50;;;;;;;8.00;2.13;;;17.30;99.90;;;;;;4877405;29;20036;-78
2022/06/30 06:58:15;;;;;;;10.55;2.33;;;17.40;99.90;;;;;;4877476;29;20100;-78
2022/06/30 07:00:41;;;;;;;10.38;2.33;;;17.40;99.90;;;;;;4877590;29;20029;-78
2022/06/30 07:03:07;;;;;;;9.18;2.25;;;17.50;99.90;;;;;;4876860;29;20446;-78
2022/06/30 07:05:33;;;;;;;9.65;1.90;;;17.40;99.90;;;;;;4876937;29;20097;-78
2022/06/30 07:08:02;;;;;;;8.07;1.60;;;17.30;99.90;;;;;;4877245;29;20085;-78
2022/06/30 07:10:28;;;;;;;11.10;1.88;;;17.20;99.90;;;;;;4877052;29;20164;-77
2022/06/30 07:12:55;;;;;;;10.40;2.22;;;17.20;99.90;;;;;;4877577;29;20056;-77
2022/06/30 07:15:24;;;;;;;17.05;2.53;;;17.10;99.90;;;;;;4876805;29;20032;-77
2022/06/30 07:17:50;;;;;;;18.63;2.00;;;17.00;99.90;;;;;;4877048;29;20021;-78
2022/06/30 07:20:16;;;;;;;11.70;1.60;;;16.80;99.90;;;;;;4876874;29;20021;-78
2022/06/30 07:22:41;;;;;;;12.10;1.70;;;16.50;99.90;;;;;;4877133;29;20025;-78
2022/06/30 07:25:07;;;;;;;5.60;1.00;;;16.40;99.90;;;;;;4876732;29;20036;-78
2022/06/30 07:27:34;;;;;;;10.57;2.13;;;16.40;99.90;;;;;;4877086;29;20021;-77
2022/06/30 07:30:00;;;;;;;10.25;2.38;;;16.50;99.90;;;;;;4876551;29;20033;-78
2022/06/30 07:32:26;;;;;;;8.02;1.65;;;16.60;99.90;;;;;;4876864;29;20036;-77
2022/06/30 07:34:51;;;;;;;7.25;1.63;;;16.80;99.90;;;;;;4876772;29;20288;-77
2022/06/30 07:37:17;;;;;;;5.95;1.65;;;16.90;99.90;;;;;;4876594;29;20462;-77
2022/06/30 07:39:43;;;;;;;7.53;1.55;;;17.10;99.90;;;;;;4876692;29;20105;-77
2022/06/30 07:42:09;;;;;;;8.30;1.95;;;17.30;99.90;;;;;;4876378;29;20096;-77
2022/06/30 07:44:34;;;;;;;11.63;2.30;;;17.30;99.90;;;;;;4876301;29;20084;-77
2022/06/30 07:47:00;;;;;;;11.63;2.17;;;17.30;99.90;;;;;;4876053;29;20039;-77
2022/06/30 07:49:26;;;;;;;14.30;2.33;;;17.30;99.90;;;;;;4876422;29;20043;-77
2022/06/30 07:51:52;;;;;;;12.25;1.98;;;17.30;99.90;;;;;;4876219;29;20032;-77
2022/06/30 07:54:19;;;;;;;13.20;2.38;;;17.30;99.90;;;;;;4876284;29;20108;-77
2022/06/30 07:56:44;;;;;;;13.43;2.58;;;17.40;99.90;;;;;;4876748;29;20470;-77
2022/06/30 07:59:10;;;;;;;14.15;2.70;;;17.50;99.90;;;;;;4875476;29;20033;-77
2022/06/30 08:01:36;;;;;;;13.20;2.05;;;17.50;99.90;;;;;;4876014;29;20069;-76
2022/06/30 08:04:02;;;;;;;11.75;2.03;;;17.50;99.90;;;;;;4875877;29;20045;-76
2022/06/30 08:06:28;;;;;;;9.70;1.25;;;17.60;99.90;;;;;;4876247;29;20039;-76
2022/06/30 08:08:54;;;;;;;9.38;1.75;;;17.70;99.90;;;;;;4876375;29;20381;-76
2022/06/30 08:11:20;;;;;;;8.20;1.20;;;17.80;99.90;;;;;;4861801;29;20101;-76
2022/06/30 08:13:45;;;;;;;9.18;1.38;;;17.80;99.90;;;;;;4876165;29;20514;-76
2022/06/30 08:16:12;;;;;;;6.22;1.40;;;17.80;99.90;;;;;;4876423;29;20375;-76
2022/06/30 08:18:37;;;;;;;6.55;1.20;;;17.70;99.90;;;;;;4876097;29;20025;-76
2022/06/30 08:21:06;;;;;;;13.27;1.75;;;17.70;99.90;;;;;;4876179;29;20032;-76
2022/06/30 08:23:32;;;;;;;14.48;1.38;;;17.80;99.90;;;;;;4875722;29;20021;-76
2022/06/30 08:25:58;;;;;;;7.03;1.40;;;17.80;99.90;;;;;;4875940;29;20410;-76
2022/06/30 08:28:24;;;;;;;7.55;1.17;;;17.90;99.90;;;;;;4874509;29;20442;-76
2022/06/30 08:30:50;;;;;;;9.02;1.65;;;18.00;99.90;;;;;;4875814;29;20028;-76
2022/06/30 08:33:16;;;;;;;13.73;1.60;;;18.10;99.90;;;;;;4875993;29;20040;-76
2022/06/30 08:35:43;;;;;;;11.65;1.70;;;18.10;99.90;;;;;;4875852;29;20021;-76
2022/06/30 08:38:09;;;;;;;8.20;1.00;;;18.00;99.90;;;;;;4876473;29;20030;-76
2022/06/30 08:43:24;;;;;;;12.65;2.30;;;18.40;99.90;;;;;;4876141;29;20035;-76
2022/06/30 08:45:51;;;;;;;7.72;1.30;;;18.80;99.90;;;;;;4875432;29;20550;-76
2022/06/30 08:48:17;;;;;;;10.73;1.85;;;19.00;99.90;;;;;;4875880;29;20029;-76
2022/06/30 08:50:45;;;;;;;7.50;1.40;;;18.90;99.90;;;;;;4875651;29;20096;-76
2022/06/30 08:53:15;;;;;;;10.60;1.98;;;18.50;99.90;;;;;;4875677;29;20497;-76
2022/06/30 08:55:42;;;;;;;11.85;1.60;;;17.90;99.90;;;;;;4875920;29;20550;-80
2022/06/30 08:58:09;;;;;;;9.23;1.85;;;17.60;99.90;;;;;;4875780;29;20065;-81
2022/06/30 09:00:38;;;;;;;11.93;1.55;;;17.30;99.90;;;;;;4875777;29;20476;-82
2022/06/30 09:03:05;;;;;;;7.18;1.60;;;17.00;99.90;;;;;;4861096;29;20547;-81
2022/06/30 09:05:31;;;;;;;14.10;1.48;;;17.00;99.90;;;;;;4875622;29;20037;-80
2022/06/30 09:07:57;;;;;;;12.82;1.85;;;17.10;99.90;;;;;;4875519;29;20475;-80
2022/06/30 09:10:25;;;;;;;11.02;1.70;;;17.00;99.90;;;;;;4876741;29;20029;-79
2022/06/30 09:13:03;;;;;;;10.95;1.80;;;17.00;99.90;;;;;;4879104;29;20117;-79
2022/06/30 09:15:31;;;;;;;11.15;1.90;;;17.10;99.90;;;;;;4866963;29;20032;-79
2022/06/30 09:18:01;;;;;;;9.63;1.35;;;17.10;99.90;;;;;;4879254;29;20033;-78
2022/06/30 09:20:38;;;;;;;9.70;2.15;;;17.10;99.90;;;;;;4878944;29;20068;-78
2022/06/30 09:23:18;;;;;;;9.30;1.42;;;17.30;99.90;;;;;;4879054;29;20063;-78
2022/06/30 09:25:48;;;;;;;8.18;1.20;;;17.50;99.90;;;;;;4878875;29;20084;-78
2022/06/30 09:28:14;;;;;;;11.77;2.00;;;17.50;99.90;;;;;;4878897;29;20142;-77
2022/06/30 09:30:41;;;;;;;7.35;1.08;;;17.60;99.90;;;;;;4878609;29;20108;-77
2022/06/30 09:33:08;;;;;;;5.68;1.30;;;17.70;99.90;;;;;;4878830;29;20033;-77
2022/06/30 09:35:34;;;;;;;5.82;1.20;;;17.80;99.90;;;;;;4878586;29;20494;-77
2022/06/30 09:38:04;;;;;;;6.85;1.50;;;17.90;99.90;;;;;;4878800;29;20046;-77
2022/06/30 09:41:00;;;;;;;5.65;1.13;;;18.00;99.90;;;;;;4878698;29;20528;-76
2022/06/30 09:43:37;;;;;;;5.47;0.70;;;18.20;99.90;;;;;;4878817;29;20029;-76
2022/06/30 09:46:03;;;;;;;6.63;0.80;;;18.30;99.90;;;;;;4865995;29;20045;-76
2022/06/30 09:48:32;;;;;;;6.88;1.02;;;18.50;99.90;;;;;;4878476;29;20028;-76
2022/06/30 09:51:00;;;;;;;5.20;0.70;;;18.60;99.90;;;;;;4878084;29;20040;-76
2022/06/30 09:53:26;;;;;;;8.07;1.52;;;18.90;99.90;;;;;;4878306;29;20021;-76
2022/06/30 09:55:52;;;;;;;6.65;1.05;;;19.20;99.90;;;;;;4878424;29;20097;-76
2022/06/30 09:58:40;;;;;;;6.53;0.93;;;19.30;99.90;;;;;;4878543;29;20013;-76
2022/06/30 10:01:06;;;;;;;4.50;0.90;;;19.30;99.90;;;;;;4863915;29;20029;-76
2022/06/30 10:03:32;;;;;;;5.13;1.08;;;19.10;99.90;;;;;;4878226;29;20462;-76
2022/06/30 10:06:10;;;;;;;5.18;0.80;;;18.80;99.90;;;;;;4877933;29;20123;-76
2022/06/30 10:08:36;;;;;;;5.30;1.23;;;18.70;99.90;;;;;;4878074;29;20029;-76
2022/06/30 10:11:02;;;;;;;3.70;0.80;;;18.70;99.90;;;;;;4877954;29;20025;-76
2022/06/30 10:13:29;;;;;;;7.22;1.40;;;18.80;99.90;;;;;;4878161;29;20056;-76
2022/06/30 10:15:56;;;;;;;3.80;0.82;;;19.00;99.90;;;;;;4877526;29;20582;-76
2022/06/30 10:18:27;;;;;;;4.82;0.93;;;19.10;99.90;;;;;;4876402;29;20061;-76
2022/06/30 10:20:53;;;;;;;8.15;1.30;;;19.50;99.90;;;;;;4878089;29;20029;-77
2022/06/30 10:23:20;;;;;;;5.28;0.90;;;19.70;99.90;;;;;;4876928;29;20067;-76
2022/06/30 10:25:48;;;;;;;5.15;0.88;;;19.70;99.90;;;;;;4877791;29;20048;-76
2022/06/30 10:28:17;;;;;;;3.88;1.20;;;19.80;99.90;;;;;;4877635;29;20100;-77
2022/06/30 10:31:21;;;;;;;6.72;1.15;;;19.90;99.90;;;;;;4877967;29;20029;-77
2022/06/30 10:34:07;;;;;;;6.93;1.55;;;19.90;99.90;;;;;;4875619;29;20025;-77
2022/06/30 10:36:44;;;;;;;6.65;1.38;;;19.50;99.90;;;;;;4882970;29;20021;-77
2022/06/30 10:39:32;;;;;;;6.90;1.33;;;19.40;99.90;;;;;;4877841;29;20210;-77
2022/06/30 10:41:57;;;;;;;5.68;1.13;;;19.80;99.90;;;;;;4873304;29;20112;-77
2022/06/30 10:44:24;;;;;;;6.07;1.05;;;20.00;99.90;;;;;;4877494;29;20523;-76
2022/06/30 10:46:56;;;;;;;5.55;1.10;;;20.20;99.90;;;;;;4877232;29;20029;-77
2022/06/30 10:49:29;;;;;;;6.20;0.80;;;19.90;99.90;;;;;;4877140;29;20025;-77
2022/06/30 10:52:19;;;;;;;7.75;1.40;;;19.50;99.90;;;;;;4877222;29;20367;-77
2022/06/30 10:54:45;;;;;;;2.95;1.00;;;19.30;99.90;;;;;;4877437;29;20141;-77
2022/06/30 10:57:12;;;;;;;6.50;0.73;;;19.50;99.90;;;;;;4877454;29;20029;-77
2022/06/30 10:59:41;;;;;;;6.13;1.35;;;19.50;99.90;;;;;;4877285;29;20145;-78
2022/06/30 11:02:07;;;;;;;4.18;1.05;;;19.50;99.90;;;;;;4876954;29;20060;-77
2022/06/30 11:04:53;;;;;;;5.63;1.02;;;19.60;99.90;;;;;;4876910;29;20079;-77
2022/06/30 11:07:21;;;;;;;5.40;1.17;;;19.80;99.90;;;;;;4829226;29;20041;-77
2022/06/30 11:09:47;;;;;;;8.70;1.42;;;19.90;99.90;;;;;;4876472;29;20033;-77
2022/06/30 11:12:25;;;;;;;6.10;0.80;;;20.30;99.90;;;;;;4876990;29;20117;-77
2022/06/30 11:14:53;;;;;;;8.70;1.10;;;20.50;99.90;;;;;;4877054;29;20017;-77
2022/06/30 11:17:21;;;;;;;6.00;0.80;;;20.40;99.90;;;;;;4877094;29;20293;-77
2022/06/30 11:19:48;;;;;;;5.47;0.85;;;20.40;99.90;;;;;;4877139;29;20013;-77
2022/06/30 11:22:15;;;;;;;7.30;1.10;;;20.50;99.90;;;;;;4876927;29;20033;-77
2022/06/30 11:24:43;;;;;;;4.38;1.02;;;20.50;99.90;;;;;;4876636;29;20185;-77
2022/06/30 11:27:18;;;;;;;5.47;1.25;;;20.40;99.90;;;;;;4876727;29;20056;-77
2022/06/30 11:29:47;;;;;;;7.20;1.17;;;20.40;99.90;;;;;;4876467;29;20078;-77
2022/06/30 11:32:13;;;;;;;3.97;0.88;;;20.40;99.90;;;;;;4876480;29;20133;-77
2022/06/30 11:34:40;;;;;;;4.38;0.82;;;20.30;99.90;;;;;;4876450;29;20037;-77
2022/06/30 11:37:10;;;;;;;4.22;0.90;;;19.90;99.90;;;;;;4876881;29;20074;-77
2022/06/30 11:39:36;;;;;;;8.25;1.40;;;19.80;99.90;;;;;;4876628;29;20024;-77
2022/06/30 11:42:11;;;;;;;5.38;1.00;;;19.90;99.90;;;;;;4876594;29;20102;-77
2022/06/30 11:44:39;;;;;;;4.40;1.23;;;19.90;99.90;;;;;;4876421;29;20060;-77
2022/06/30 11:47:11;;;;;;;4.90;1.27;;;20.00;99.90;;;;;;4876210;29;20052;-77
2022/06/30 11:49:40;;;;;;;4.55;1.20;;;20.50;99.90;;;;;;4876342;29;20052;-77
2022/06/30 11:52:15;;;;;;;4.28;0.90;;;21.10;99.90;;;;;;4876219;29;20052;-77
2022/06/30 11:54:53;;;;;;;4.95;0.90;;;21.10;99.90;;;;;;4876387;29;20505;-77
2022/06/30 11:57:25;;;;;;;5.72;1.10;;;21.20;99.90;;;;;;4876314;29;20027;-77
2022/06/30 11:59:53;;;;;;;6.85;1.10;;;21.30;99.90;;;;;;4876544;29;20033;-77
2022/06/30 12:02:20;;;;;;;5.38;1.10;;;21.10;99.90;;;;;;4876144;29;20029;-77
2022/06/30 12:04:51;;;;;;;9.18;1.42;;;20.90;99.90;;;;;;4876229;29;20037;-77
2022/06/30 12:07:18;;;;;;;3.58;0.80;;;20.80;99.90;;;;;;4876326;29;20025;-77
2022/06/30 12:09:45;;;;;;;6.03;1.25;;;20.40;99.90;;;;;;4876131;29;20033;-77
2022/06/30 12:12:17;;;;;;;5.55;1.20;;;20.50;99.90;;;;;;4876119;29;20021;-77
2022/06/30 12:14:45;;;;;;;4.60;0.77;;;20.40;99.90;;;;;;4876097;29;20021;-77
2022/06/30 12:17:12;;;;;;;4.65;1.00;;;20.30;99.90;;;;;;4876065;29;20064;-76
2022/06/30 12:19:41;;;;;;;9.52;1.20;;;20.10;99.90;;;;;;4875978;29;20470;-77
2022/06/30 12:22:08;;;;;;;8.55;1.05;;;20.20;99.90;;;;;;4876036;29;20029;-77
2022/06/30 12:24:36;;;;;;;6.43;1.08;;;20.30;99.90;;;;;;4875799;29;20060;-77
2022/06/30 12:27:02;;;;;;;6.78;0.98;;;20.70;99.90;;;;;;4876077;29;20057;-77
2022/06/30 12:29:29;;;;;;;4.82;0.90;;;20.80;99.90;;;;;;4875714;29;20025;-77
2022/06/30 12:32:03;;;;;;;5.50;1.17;;;20.90;99.90;;;;;;4876015;29;20036;-78
2022/06/30 12:34:30;;;;;;;4.80;1.00;;;20.70;99.90;;;;;;4875753;29;20047;-77
2022/06/30 12:37:03;;;;;;;9.77;1.30;;;20.30;99.90;;;;;;4876132;29;20021;-77
2022/06/30 12:39:32;;;;;;;3.97;0.73;;;20.10;99.90;;;;;;4875967;29;20033;-77
2022/06/30 12:42:06;;;;;;;9.93;1.63;;;20.30;99.90;;;;;;4875913;29;20390;-77
2022/06/30 12:44:35;;;;;;;4.75;0.65;;;20.70;99.90;;;;;;4875809;29;20029;-77
2022/06/30 12:47:08;;;;;;;3.15;0.50;;;20.50;99.90;;;;;;4879301;29;20056;-77
2022/06/30 12:49:34;;;;;;;3.63;0.88;;;20.90;99.40;;;;;;4879447;29;20036;-77
2022/06/30 12:52:00;;;;;;;4.68;0.70;;;20.90;98.90;;;;;;4879192;29;20029;-77
2022/06/30 12:54:27;;;;;;;8.25;0.70;;;20.80;99.20;;;;;;4877905;29;20029;-77
2022/06/30 12:57:03;;;;;;;1.63;0.40;;;20.80;98.40;;;;;;4879379;29;20031;-77
2022/06/30 12:59:28;;;;;;;3.88;0.93;;;20.80;98.20;;;;;;4879399;29;20215;-77
2022/06/30 13:02:00;;;;;;;5.82;1.00;;;21.00;98.50;;;;;;4879763;29;20235;-77